createdAt,value
2019-01-02T00:00:23.959Z,75.83
2019-01-02T00:02:53.080Z,75.78
2019-01-02T00:05:22.226Z,75.88
2019-01-02T00:07:53.470Z,75.83
2019-01-02T00:10:22.911Z,75.73
2019-01-02T00:12:51.991Z,75.78
2019-01-02T00:15:22.090Z,75.69
2019-01-02T00:17:51.174Z,76.01
2019-01-02T00:20:20.414Z,76.21
2019-01-02T00:22:49.519Z,76.01
2019-01-02T00:25:18.589Z,76.13
2019-01-02T00:27:47.692Z,76.04
2019-01-02T00:30:16.884Z,76.19
2019-01-02T00:32:46.212Z,76.22
2019-01-02T00:35:15.395Z,76.10
2019-01-02T00:37:45.418Z,76.13
2019-01-02T00:40:14.569Z,75.95
2019-01-02T00:42:43.789Z,75.80
2019-01-02T00:45:12.983Z,75.25
2019-01-02T00:47:42.228Z,75.13
2019-01-02T00:50:12.511Z,75.01
2019-01-02T00:52:41.813Z,74.94
2019-01-02T00:55:11.179Z,74.62
2019-01-02T00:57:40.391Z,74.04
2019-01-02T01:00:15.787Z,74.08
2019-01-02T01:02:44.948Z,73.95
2019-01-02T01:05:14.056Z,73.61
2019-01-02T01:07:43.332Z,73.90
2019-01-02T01:10:18.445Z,74.01
2019-01-02T01:12:54.230Z,74.09
2019-01-02T01:15:25.170Z,73.96
2019-01-02T01:17:55.996Z,73.68
2019-01-02T01:20:25.715Z,73.81
2019-01-02T01:22:55.544Z,73.86
2019-01-02T01:25:24.790Z,73.83
2019-01-02T01:27:53.947Z,73.72
2019-01-02T01:30:23.147Z,73.66
2019-01-02T01:32:52.219Z,73.76
2019-01-02T01:35:21.322Z,73.68
2019-01-02T01:37:53.570Z,73.75
2019-01-02T01:40:22.765Z,73.59
2019-01-02T01:42:51.946Z,73.53
2019-01-02T01:45:21.128Z,73.59
2019-01-02T01:47:50.664Z,73.35
2019-01-02T01:50:19.845Z,73.78
2019-01-02T01:52:49.022Z,73.66
2019-01-02T01:55:18.246Z,73.57
2019-01-02T01:57:47.548Z,73.58
2019-01-02T02:00:19.178Z,73.83
2019-01-02T02:02:48.410Z,73.88
2019-01-02T02:05:18.018Z,73.86
2019-01-02T02:07:47.226Z,73.62
2019-01-02T02:10:17.647Z,73.81
2019-01-02T02:12:46.845Z,73.57
2019-01-02T02:15:16.009Z,74.10
2019-01-02T02:17:45.531Z,73.89
2019-01-02T02:20:15.223Z,73.63
2019-01-02T02:22:45.074Z,73.70
2019-01-02T02:25:16.929Z,73.75
2019-01-02T02:27:46.011Z,73.69
2019-01-02T02:30:15.493Z,73.80
2019-01-02T02:32:46.276Z,73.61
2019-01-02T02:35:15.566Z,73.68
2019-01-02T02:37:44.746Z,73.25
2019-01-02T02:40:14.683Z,73.66
2019-01-02T02:42:44.724Z,73.30
2019-01-02T02:45:14.169Z,73.20
2019-01-02T02:47:44.405Z,73.43
2019-01-02T02:50:15.465Z,73.26
2019-01-02T02:52:44.638Z,73.57
2019-01-02T02:55:16.513Z,73.41
2019-01-02T02:57:45.615Z,73.34
2019-01-02T03:00:15.328Z,73.47
2019-01-02T03:02:44.488Z,73.52
2019-01-02T03:05:15.018Z,73.55
2019-01-02T03:07:44.131Z,73.62
2019-01-02T03:10:15.192Z,73.48
2019-01-02T03:12:45.611Z,73.51
2019-01-02T03:15:14.916Z,73.49
2019-01-02T03:17:44.730Z,73.30
2019-01-02T03:20:15.262Z,73.31
2019-01-02T03:22:44.755Z,73.30
2019-01-02T03:25:14.536Z,73.47
2019-01-02T03:27:43.737Z,73.56
2019-01-02T03:30:15.617Z,73.39
2019-01-02T03:32:44.898Z,73.47
2019-01-02T03:35:14.080Z,73.49
2019-01-02T03:37:43.188Z,73.65
2019-01-02T03:40:12.523Z,73.47
2019-01-02T03:42:42.578Z,73.38
2019-01-02T03:45:14.091Z,73.59
2019-01-02T03:47:43.332Z,73.56
2019-01-02T03:50:14.962Z,73.42
2019-01-02T03:52:44.082Z,73.37
2019-01-02T03:55:13.356Z,73.44
2019-01-02T03:57:42.837Z,73.53
2019-01-02T04:00:17.326Z,73.27
2019-01-02T04:02:47.104Z,73.43
2019-01-02T04:05:18.528Z,73.30
2019-01-02T04:07:50.802Z,73.24
2019-01-02T04:10:19.918Z,73.26
2019-01-02T04:12:49.092Z,72.93
2019-01-02T04:15:19.047Z,73.09
2019-01-02T04:17:48.171Z,72.94
2019-01-02T04:20:17.419Z,72.89
2019-01-02T04:22:46.516Z,72.94
2019-01-02T04:25:15.957Z,72.84
2019-01-02T04:27:45.021Z,72.78
2019-01-02T04:30:15.309Z,72.78
2019-01-02T04:32:44.519Z,72.33
2019-01-02T04:35:15.752Z,72.52
2019-01-02T04:37:44.889Z,71.96
2019-01-02T04:40:14.315Z,72.00
2019-01-02T04:42:43.420Z,72.00
2019-01-02T04:45:12.542Z,72.02
2019-01-02T04:47:41.892Z,72.10
2019-01-02T04:50:13.203Z,72.10
2019-01-02T04:52:42.340Z,71.90
2019-01-02T04:55:11.413Z,71.61
2019-01-02T04:57:40.595Z,71.19
2019-01-02T05:00:15.867Z,71.37
2019-01-02T05:02:45.047Z,71.24
2019-01-02T05:05:14.146Z,71.10
2019-01-02T05:07:43.335Z,70.97
2019-01-02T05:10:13.759Z,70.60
2019-01-02T05:12:42.939Z,70.70
2019-01-02T05:15:12.299Z,70.50
2019-01-02T05:17:41.434Z,70.67
2019-01-02T05:20:15.547Z,70.62
2019-01-02T05:22:44.773Z,70.40
2019-01-02T05:25:13.873Z,70.35
2019-01-02T05:27:43.112Z,70.06
2019-01-02T05:30:16.878Z,70.04
2019-01-02T05:32:46.999Z,70.32
2019-01-02T05:35:16.164Z,70.17
2019-01-02T05:37:45.331Z,70.28
2019-01-02T05:40:17.247Z,69.95
2019-01-02T05:42:46.435Z,70.15
2019-01-02T05:45:15.541Z,70.10
2019-01-02T05:47:45.670Z,69.83
2019-01-02T05:50:16.182Z,69.74
2019-01-02T05:52:45.275Z,69.60
2019-01-02T05:55:14.499Z,69.64
2019-01-02T05:57:43.587Z,69.83
2019-01-02T06:00:14.940Z,69.73
2019-01-02T06:02:44.070Z,69.66
2019-01-02T06:05:13.227Z,69.53
2019-01-02T06:07:42.392Z,69.41
2019-01-02T06:10:15.397Z,69.38
2019-01-02T06:12:44.566Z,69.55
2019-01-02T06:15:15.662Z,69.45
2019-01-02T06:17:44.760Z,69.45
2019-01-02T06:20:16.599Z,69.64
2019-01-02T06:22:45.660Z,69.57
2019-01-02T06:25:14.991Z,69.69
2019-01-02T06:27:44.090Z,69.85
2019-01-02T06:30:14.360Z,69.55
2019-01-02T06:32:43.632Z,69.29
2019-01-02T06:35:13.534Z,69.40
2019-01-02T06:37:42.618Z,69.24
2019-01-02T06:40:13.205Z,69.14
2019-01-02T06:42:43.366Z,69.10
2019-01-02T06:45:15.438Z,68.94
2019-01-02T06:47:44.539Z,69.01
2019-01-02T06:50:18.974Z,69.27
2019-01-02T06:52:50.823Z,68.74
2019-01-02T06:55:21.104Z,68.81
2019-01-02T07:23:44.435Z,68.24
2019-01-02T07:26:13.472Z,68.16
2019-01-02T07:28:42.589Z,68.66
2019-01-02T07:31:11.624Z,68.49
2019-01-02T07:33:47.553Z,68.50
2019-01-02T07:38:31.075Z,68.67
2019-01-02T07:43:15.492Z,68.68
2019-01-02T07:46:13.388Z,68.72
2019-01-02T07:50:25.375Z,68.81
2019-01-02T07:53:21.862Z,68.64
2019-01-02T07:57:02.812Z,68.96
2019-01-02T08:00:15.237Z,68.61
2019-01-02T08:05:09.603Z,68.59
2019-01-02T08:09:57.517Z,68.37
2019-01-02T08:12:38.734Z,68.80
2019-01-02T08:17:26.088Z,68.77
2019-01-02T08:20:11.240Z,68.71
2019-01-02T08:22:57.261Z,68.77
2019-01-02T08:25:46.861Z,68.87
2019-01-02T08:30:44.307Z,68.88
2019-01-02T08:33:28.159Z,69.00
2019-01-02T08:36:22.235Z,68.85
2019-01-02T08:39:43.593Z,69.18
2019-01-02T08:42:27.323Z,68.78
2019-01-02T08:46:12.371Z,68.68
2019-01-02T08:48:51.097Z,69.06
2019-01-02T08:52:31.581Z,68.84
2019-01-02T08:55:13.290Z,68.97
2019-01-02T08:57:55.859Z,68.84
2019-01-02T09:00:39.592Z,68.66
2019-01-02T09:03:33.331Z,69.03
2019-01-02T09:06:36.657Z,68.52
2019-01-02T09:09:49.360Z,68.91
2019-01-02T09:13:32.495Z,68.91
2019-01-02T09:16:13.202Z,68.69
2019-01-02T09:19:18.114Z,68.58
2019-01-02T09:24:04.131Z,68.78
2019-01-02T09:26:54.513Z,68.72
2019-01-02T09:30:07.437Z,68.23
2019-01-02T09:32:49.137Z,68.25
2019-01-02T09:35:37.718Z,68.26
2019-01-02T09:38:26.479Z,68.18
2019-01-02T09:41:15.960Z,68.27
2019-01-02T09:46:05.713Z,68.53
2019-01-02T09:50:55.330Z,68.02
2019-01-02T09:55:42.458Z,67.88
2019-01-02T09:58:33.634Z,67.61
2019-01-02T10:03:19.318Z,67.88
2019-01-02T10:06:00.415Z,67.83
2019-01-02T10:08:53.863Z,67.91
2019-01-02T10:12:53.486Z,67.91
2019-01-02T10:15:40.933Z,67.79
2019-01-02T10:20:31.823Z,67.73
2019-01-02T10:25:19.060Z,67.72
2019-01-02T10:27:58.824Z,67.36
2019-01-02T10:30:41.678Z,67.50
2019-01-02T10:33:39.549Z,67.70
2019-01-02T10:36:24.995Z,67.48
2019-01-02T10:41:06.814Z,67.75
2019-01-02T10:43:52.291Z,67.67
2019-01-02T10:47:15.965Z,67.49
2019-01-02T10:49:56.778Z,67.39
2019-01-02T10:52:36.729Z,67.38
2019-01-02T10:55:31.839Z,67.18
2019-01-02T11:00:15.116Z,67.19
2019-01-02T11:02:54.847Z,67.04
2019-01-02T11:05:38.513Z,66.96
2019-01-02T11:08:38.753Z,66.92
2019-01-02T11:11:19.497Z,66.96
2019-01-02T11:15:00.283Z,67.13
2019-01-02T11:18:12.518Z,66.74
2019-01-02T11:20:56.839Z,67.00
2019-01-02T11:23:37.871Z,67.04
2019-01-02T11:28:27.412Z,66.87
2019-01-02T11:31:07.116Z,66.54
2019-01-02T11:34:48.790Z,66.53
2019-01-02T11:39:23.893Z,66.50
2019-01-02T11:42:04.734Z,66.18
2019-01-02T11:44:55.735Z,66.32
2019-01-02T11:47:24.946Z,66.17
2019-01-02T11:49:54.069Z,66.23
2019-01-02T11:52:24.191Z,66.14
2019-01-02T11:54:53.748Z,65.92
2019-01-02T11:57:22.990Z,66.01
2019-01-02T11:59:52.271Z,65.49
2019-01-02T12:02:23.087Z,65.49
2019-01-02T12:04:52.435Z,65.56
2019-01-02T12:07:21.559Z,65.09
2019-01-02T12:09:50.688Z,65.08
2019-01-02T12:12:20.563Z,64.89
2019-01-02T12:14:49.614Z,64.65
2019-01-02T12:17:18.833Z,64.84
2019-01-02T12:19:47.978Z,64.27
2019-01-02T12:22:18.502Z,63.99
2019-01-02T12:24:48.399Z,64.07
2019-01-02T12:27:17.661Z,63.57
2019-01-02T12:29:46.920Z,63.60
2019-01-02T12:32:15.986Z,63.41
2019-01-02T12:34:45.055Z,63.22
2019-01-02T12:37:14.356Z,63.18
2019-01-02T12:39:43.462Z,63.02
2019-01-02T12:42:12.600Z,62.60
2019-01-02T12:53:19.915Z,62.38
2019-01-02T12:55:49.213Z,62.29
2019-01-02T12:58:19.352Z,62.09
2019-01-02T13:00:54.245Z,61.85
2019-01-02T13:03:32.077Z,61.75
2019-01-02T13:06:16.564Z,61.46
2019-01-02T13:09:12.058Z,60.96
2019-01-02T13:11:56.768Z,61.35
2019-01-02T13:14:51.607Z,61.20
2019-01-02T13:17:33.698Z,61.51
2019-01-02T13:20:22.419Z,61.18
2019-01-02T13:24:01.098Z,61.34
2019-01-02T13:26:35.445Z,61.73
2019-01-02T13:31:52.410Z,61.67
2019-01-02T13:34:45.708Z,61.57
2019-01-02T13:37:28.124Z,61.54
2019-01-02T13:40:24.763Z,61.75
2019-01-02T13:43:21.054Z,61.81
2019-01-02T13:46:01.312Z,61.87
2019-01-02T13:48:39.556Z,61.86
2019-01-02T13:51:23.167Z,61.85
2019-01-02T13:53:53.425Z,61.81
2019-01-02T13:56:24.448Z,62.01
2019-01-02T13:58:53.637Z,62.17
2019-01-02T14:01:23.129Z,61.77
2019-01-02T14:03:56.753Z,62.00
2019-01-02T14:06:26.029Z,62.00
2019-01-02T14:08:55.193Z,61.93
2019-01-02T14:11:24.314Z,61.96
2019-01-02T14:13:54.229Z,61.91
2019-01-02T14:16:23.461Z,61.64
2019-01-02T14:18:52.836Z,61.88
2019-01-02T14:21:22.105Z,61.98
2019-01-02T14:23:51.250Z,61.92
2019-01-02T14:26:20.599Z,62.27
2019-01-02T14:28:49.732Z,62.49
2019-01-02T14:31:19.053Z,62.25
2019-01-02T14:33:48.347Z,62.30
2019-01-02T14:36:21.288Z,62.58
2019-01-02T14:38:50.240Z,62.24
2019-01-02T14:41:19.698Z,62.14
2019-01-02T14:43:49.124Z,61.77
2019-01-02T14:46:18.697Z,61.83
2019-01-02T14:48:48.355Z,61.84
2019-01-02T14:51:17.465Z,61.41
2019-01-02T14:53:47.038Z,61.35
2019-01-02T14:56:16.580Z,61.69
2019-01-02T14:58:49.835Z,61.18
2019-01-02T15:01:19.032Z,61.06
2019-01-02T15:03:48.852Z,61.44
2019-01-02T15:06:18.156Z,61.51
2019-01-02T15:08:47.463Z,61.45
2019-01-02T15:11:16.707Z,61.27
2019-01-02T15:13:45.842Z,61.13
2019-01-02T15:16:16.075Z,61.44
2019-01-02T15:18:45.287Z,61.43
2019-01-02T15:21:14.568Z,61.55
2019-01-02T15:23:43.690Z,61.60
2019-01-02T15:26:12.969Z,61.62
2019-01-02T15:28:42.064Z,61.78
2019-01-02T15:31:11.154Z,61.98
2019-01-02T15:33:40.264Z,61.76
2019-01-02T15:36:10.698Z,62.03
2019-01-02T15:38:39.967Z,61.92
2019-01-02T15:41:09.318Z,62.08
2019-01-02T15:43:39.339Z,61.86
2019-01-02T15:46:08.815Z,61.87
2019-01-02T15:48:38.122Z,61.85
2019-01-02T15:51:08.528Z,61.72
2019-01-02T15:53:38.556Z,62.32
2019-01-02T15:56:07.741Z,62.11
2019-01-02T15:58:37.061Z,62.23
2019-01-02T16:01:07.390Z,62.12
2019-01-02T16:03:36.478Z,62.28
2019-01-02T16:06:05.654Z,62.04
2019-01-02T16:08:35.511Z,62.17
2019-01-02T16:11:05.390Z,62.14
2019-01-02T16:13:34.532Z,61.77
2019-01-02T16:16:08.398Z,61.99
2019-01-02T16:18:37.643Z,62.00
2019-01-02T16:21:07.074Z,62.18
2019-01-02T16:23:36.196Z,62.24
2019-01-02T16:26:05.501Z,62.19
2019-01-02T16:28:35.547Z,62.27
2019-01-02T16:31:04.778Z,61.95
2019-01-02T16:33:35.676Z,62.35
2019-01-02T16:36:05.141Z,62.30
2019-01-02T16:38:34.369Z,62.17
2019-01-02T16:41:03.456Z,62.55
2019-01-02T16:43:32.716Z,62.03
2019-01-02T16:46:02.205Z,62.03
2019-01-02T16:48:32.458Z,62.52
2019-01-02T16:51:01.867Z,62.60
2019-01-02T16:53:30.956Z,62.48
2019-01-02T16:56:00.205Z,62.21
2019-01-02T16:58:29.374Z,61.94
2019-01-02T17:00:59.407Z,62.14
2019-01-02T17:03:29.401Z,62.28
2019-01-02T17:05:58.483Z,62.46
2019-01-02T17:08:27.688Z,62.20
2019-01-02T17:10:56.775Z,62.01
2019-01-02T17:13:25.878Z,62.17
2019-01-02T17:15:54.941Z,62.40
2019-01-02T17:18:24.072Z,62.32
2019-01-02T17:20:53.226Z,62.21
2019-01-02T17:23:25.056Z,62.42
2019-01-02T17:25:54.821Z,62.67
2019-01-02T17:28:23.925Z,62.82
2019-01-02T17:30:53.094Z,62.54
2019-01-02T17:33:22.516Z,62.69
2019-01-02T17:35:51.783Z,62.83
2019-01-02T17:38:20.928Z,62.86
2019-01-02T17:40:50.007Z,62.75
2019-01-02T17:43:19.017Z,62.92
2019-01-02T17:45:48.323Z,63.08
2019-01-02T17:48:17.407Z,63.20
2019-01-02T17:50:46.622Z,63.17
2019-01-02T17:53:18.881Z,63.42
2019-01-02T17:55:47.937Z,63.44
2019-01-02T17:58:17.102Z,63.29
2019-01-02T18:00:46.206Z,63.45
2019-01-02T18:03:16.063Z,63.63
2019-01-02T18:05:45.445Z,63.37
2019-01-02T18:08:14.584Z,63.50
2019-01-02T18:10:44.678Z,63.70
2019-01-02T18:13:13.764Z,63.25
2019-01-02T18:15:43.117Z,63.61
2019-01-02T18:18:12.177Z,63.13
2019-01-02T18:20:41.243Z,63.20
2019-01-02T18:23:11.305Z,63.49
2019-01-02T18:25:40.708Z,63.57
2019-01-02T18:28:10.601Z,63.36
2019-01-02T18:30:41.107Z,63.74
2019-01-02T18:33:11.791Z,63.51
2019-01-02T18:35:40.843Z,63.53
2019-01-02T18:38:10.081Z,63.97
2019-01-02T18:40:39.177Z,63.80
2019-01-02T18:43:08.366Z,64.21
2019-01-02T18:45:37.364Z,64.15
2019-01-02T18:48:06.498Z,64.49
2019-01-02T18:50:35.560Z,64.65
2019-01-02T18:53:04.648Z,64.38
2019-01-02T18:55:33.722Z,64.72
2019-01-02T18:58:02.794Z,64.40
2019-01-02T19:00:31.914Z,64.94
2019-01-02T19:03:00.902Z,64.81
2019-01-02T19:05:30.005Z,65.01
2019-01-02T19:07:59.100Z,64.78
2019-01-02T19:10:28.559Z,65.17
2019-01-02T19:12:57.662Z,65.20
2019-01-02T19:15:26.801Z,64.90
2019-01-02T19:17:55.841Z,65.17
2019-01-02T19:20:25.118Z,65.32
2019-01-02T19:22:54.183Z,65.25
2019-01-02T19:25:23.296Z,65.26
2019-01-02T19:27:52.545Z,65.23
2019-01-02T19:30:21.618Z,65.48
2019-01-02T19:32:50.751Z,65.41
2019-01-02T19:35:19.861Z,65.62
2019-01-02T19:37:48.983Z,65.54
2019-01-02T19:40:18.042Z,65.72
2019-01-02T19:42:47.211Z,65.34
2019-01-02T19:45:16.376Z,65.17
2019-01-02T19:47:45.456Z,65.45
2019-01-02T19:50:14.442Z,65.54
2019-01-02T19:52:43.562Z,65.48
2019-01-02T19:55:12.586Z,65.41
2019-01-02T19:57:41.625Z,65.15
2019-01-02T20:00:12.026Z,65.52
2019-01-02T20:02:41.071Z,65.19
2019-01-02T20:05:10.240Z,65.49
2019-01-02T20:07:39.242Z,65.32
2019-01-02T20:10:10.204Z,65.61
2019-01-02T20:12:39.802Z,65.50
2019-01-02T20:15:12.179Z,65.61
2019-01-02T20:17:41.282Z,65.86
2019-01-02T20:20:12.803Z,65.58
2019-01-02T20:22:42.339Z,65.39
2019-01-02T20:25:11.543Z,65.45
2019-01-02T20:27:40.774Z,65.42
2019-01-02T20:30:11.568Z,65.50
2019-01-02T20:32:41.066Z,65.64
2019-01-02T20:35:10.194Z,65.44
2019-01-02T20:37:40.271Z,65.40
2019-01-02T20:40:10.151Z,65.57
2019-01-02T20:42:40.283Z,65.35
2019-01-02T20:45:09.390Z,65.50
2019-01-02T20:47:38.377Z,65.67
2019-01-02T20:50:09.190Z,65.61
2019-01-02T20:52:38.214Z,65.57
2019-01-02T20:55:07.570Z,65.84
2019-01-02T20:57:36.686Z,66.15
2019-01-02T21:00:06.588Z,66.24
2019-01-02T21:02:35.723Z,66.51
2019-01-02T21:05:04.843Z,66.53
2019-01-02T21:07:33.918Z,66.19
2019-01-02T21:10:02.931Z,65.98
2019-01-02T21:12:32.649Z,66.05
2019-01-02T21:15:01.629Z,65.86
2019-01-02T21:17:30.627Z,65.79
2019-01-02T21:19:59.864Z,66.06
2019-01-02T21:22:28.798Z,65.91
2019-01-02T21:24:57.783Z,66.10
2019-01-02T21:27:26.883Z,66.23
2019-01-02T21:29:56.632Z,66.15
2019-01-02T21:32:25.621Z,66.28
2019-01-02T21:34:54.751Z,66.52
2019-01-02T21:37:23.773Z,66.36
2019-01-02T21:39:53.546Z,66.37
2019-01-02T21:42:22.625Z,66.52
2019-01-02T21:44:52.945Z,66.38
2019-01-02T21:47:20.721Z,66.67
2019-01-02T21:49:49.713Z,67.04
2019-01-02T21:52:20.764Z,67.19
2019-01-02T21:54:49.719Z,67.10
2019-01-02T21:57:18.812Z,67.14
2019-01-02T21:59:48.555Z,67.27
2019-01-02T22:02:19.226Z,67.49
2019-01-02T22:04:48.250Z,67.35
2019-01-02T22:07:17.246Z,67.04
2019-01-02T22:09:46.238Z,67.40
2019-01-02T22:12:15.514Z,67.30
2019-01-02T22:14:44.533Z,67.47
2019-01-02T22:17:13.523Z,67.11
2019-01-02T22:19:43.105Z,66.94
2019-01-02T22:22:12.242Z,67.16
2019-01-02T22:24:41.266Z,67.72
2019-01-02T22:27:10.295Z,67.67
2019-01-02T22:29:39.314Z,67.73
2019-01-02T22:32:08.412Z,67.34
2019-01-02T22:34:37.479Z,67.28
2019-01-02T22:37:08.331Z,67.37
2019-01-02T22:39:38.069Z,67.31
2019-01-02T22:42:11.682Z,66.99
2019-01-02T22:44:40.718Z,67.15
2019-01-02T22:47:10.054Z,67.20
2019-01-02T22:49:39.049Z,67.04
2019-01-02T22:52:08.036Z,67.22
2019-01-02T22:54:37.025Z,67.32
2019-01-02T22:57:06.018Z,67.34
2019-01-02T22:59:35.211Z,67.80
2019-01-02T23:02:13.087Z,67.53
2019-01-02T23:04:49.138Z,67.43
2019-01-02T23:08:27.393Z,67.64
2019-01-02T23:11:05.265Z,67.71
2019-01-02T23:13:39.449Z,67.94
2019-01-02T23:16:15.400Z,67.83
2019-01-02T23:18:54.520Z,67.99
2019-01-02T23:21:28.535Z,68.20
2019-01-02T23:24:03.303Z,68.17
2019-01-02T23:26:37.527Z,68.18
2019-01-02T23:29:11.489Z,68.26
2019-01-02T23:32:16.116Z,68.50
2019-01-02T23:35:48.605Z,68.31
2019-01-02T23:38:22.725Z,68.39
2019-01-02T23:40:57.048Z,68.14
2019-01-02T23:43:33.123Z,68.22
2019-01-02T23:46:12.069Z,67.78
2019-01-02T23:48:46.310Z,68.01
2019-01-02T23:52:21.364Z,68.00
2019-01-02T23:54:55.440Z,68.22
2019-01-02T23:59:36.250Z,68.30
